createdAt,value
2018-03-18T00:00:19.631Z,0.50
2018-03-18T00:00:51.298Z,0.40
2018-03-18T00:01:22.962Z,0.40
2018-03-18T00:01:54.626Z,0.40
2018-03-18T00:02:28.203Z,0.40
2018-03-18T00:02:59.858Z,0.40
2018-03-18T00:03:31.568Z,0.40
2018-03-18T00:04:03.245Z,0.40
2018-03-18T00:04:34.925Z,0.40
2018-03-18T00:05:06.587Z,0.30
2018-03-18T00:05:38.207Z,0.40
2018-03-18T00:06:09.909Z,0.40
2018-03-18T00:06:41.564Z,0.50
2018-03-18T00:07:13.207Z,0.40
2018-03-18T00:07:44.867Z,0.40
2018-03-18T00:08:16.481Z,0.40
2018-03-18T00:08:48.092Z,0.40
2018-03-18T00:09:19.751Z,0.50
2018-03-18T00:09:51.369Z,0.40
2018-03-18T00:10:23.033Z,0.30
2018-03-18T00:10:54.683Z,0.30
2018-03-18T00:11:26.295Z,0.30
2018-03-18T00:11:57.923Z,0.40
2018-03-18T00:12:29.549Z,0.30
2018-03-18T00:13:01.195Z,0.30
2018-03-18T00:13:32.843Z,0.30
2018-03-18T00:14:04.481Z,0.30
2018-03-18T00:14:36.095Z,0.30
2018-03-18T00:15:07.725Z,0.30
2018-03-18T00:15:39.372Z,0.20
2018-03-18T00:16:10.991Z,0.30
2018-03-18T00:16:42.621Z,0.20
2018-03-18T00:17:14.237Z,0.20
2018-03-18T00:17:45.843Z,0.20
2018-03-18T00:18:18.377Z,0.10
2018-03-18T00:18:50.016Z,0.10
2018-03-18T00:19:21.634Z,0.20
2018-03-18T00:19:53.245Z,0.20
2018-03-18T00:20:24.877Z,0.00
2018-03-18T00:20:56.519Z,0.10
2018-03-18T00:21:28.182Z,0.10
2018-03-18T00:21:59.806Z,0.00
2018-03-18T00:22:31.427Z,0.10
2018-03-18T00:23:03.077Z,0.10
2018-03-18T00:23:34.713Z,0.10
2018-03-18T00:24:06.317Z,0.00
2018-03-18T00:24:37.990Z,0.10
2018-03-18T00:25:09.592Z,0.00
2018-03-18T00:25:41.202Z,0.00
2018-03-18T00:26:12.831Z,0.00
2018-03-18T00:26:44.449Z,-0.10
2018-03-18T00:27:16.085Z,0.00
2018-03-18T00:27:47.707Z,0.00
2018-03-18T00:28:19.319Z,0.00
2018-03-18T00:28:50.951Z,-0.10
2018-03-18T00:29:22.585Z,-0.10
2018-03-18T00:29:54.195Z,-0.10
2018-03-18T00:30:25.886Z,-0.10
2018-03-18T00:30:57.509Z,-0.10
2018-03-18T00:31:29.137Z,-0.10
2018-03-18T00:32:00.753Z,-0.10
2018-03-18T00:32:32.381Z,-0.10
2018-03-18T00:33:04.013Z,-0.10
2018-03-18T00:33:35.631Z,-0.10
2018-03-18T00:34:07.253Z,-0.10
2018-03-18T00:34:38.883Z,-0.10
2018-03-18T00:35:10.520Z,-0.20
2018-03-18T00:35:42.141Z,-0.20
2018-03-18T00:36:13.787Z,-0.20
2018-03-18T00:36:45.421Z,-0.20
2018-03-18T00:37:17.053Z,-0.20
2018-03-18T00:37:48.678Z,-0.20
2018-03-18T00:38:20.334Z,-0.30
2018-03-18T00:38:51.972Z,-0.20
2018-03-18T00:39:23.589Z,-0.20
2018-03-18T00:39:55.236Z,-0.20
2018-03-18T00:40:26.853Z,-0.20
2018-03-18T00:40:58.513Z,-0.20
2018-03-18T00:41:30.149Z,-0.30
2018-03-18T00:42:01.801Z,-0.30
2018-03-18T00:42:33.433Z,-0.30
2018-03-18T00:43:05.097Z,-0.30
2018-03-18T00:43:36.717Z,-0.30
2018-03-18T00:44:08.368Z,-0.30
2018-03-18T00:44:39.981Z,-0.30
2018-03-18T00:45:11.601Z,-0.30
2018-03-18T00:45:43.212Z,-0.30
2018-03-18T00:46:14.857Z,-0.40
2018-03-18T00:46:46.507Z,-0.30
2018-03-18T00:47:18.149Z,-0.30
2018-03-18T00:47:49.782Z,-0.40
2018-03-18T00:48:21.409Z,-0.30
2018-03-18T00:48:53.062Z,-0.40
2018-03-18T00:49:24.696Z,-0.40
2018-03-18T00:49:56.345Z,-0.40
2018-03-18T00:50:27.973Z,-0.40
2018-03-18T00:50:59.585Z,-0.40
2018-03-18T00:51:49.867Z,-0.40
2018-03-18T00:52:21.521Z,-0.40
2018-03-18T00:52:53.137Z,-0.40
2018-03-18T00:53:24.771Z,-0.40
2018-03-18T00:53:56.385Z,-0.40
2018-03-18T00:54:28.025Z,-0.40
2018-03-18T00:54:59.641Z,-0.40
2018-03-18T00:55:31.273Z,-0.50
2018-03-18T00:56:02.929Z,-0.40
2018-03-18T00:56:34.552Z,-0.40
2018-03-18T00:57:06.193Z,-0.40
2018-03-18T00:57:37.823Z,-0.40
2018-03-18T00:58:09.435Z,-0.50
2018-03-18T00:58:41.081Z,-0.50
2018-03-18T00:59:12.695Z,-0.40
2018-03-18T00:59:44.330Z,-0.50
2018-03-18T01:00:15.969Z,-0.40
2018-03-18T01:00:47.601Z,-0.50
2018-03-18T01:01:19.231Z,-0.50
2018-03-18T01:01:50.878Z,-0.50
2018-03-18T01:02:22.521Z,-0.50
2018-03-18T01:02:54.169Z,-0.50
2018-03-18T01:03:25.797Z,-0.50
2018-03-18T01:03:57.441Z,-0.60
2018-03-18T01:04:29.052Z,-0.50
2018-03-18T01:05:00.704Z,-0.50
2018-03-18T01:05:32.331Z,-0.60
2018-03-18T01:06:03.969Z,-0.50
2018-03-18T01:06:35.616Z,-0.60
2018-03-18T01:07:07.279Z,-0.50
2018-03-18T01:07:38.907Z,-0.50
2018-03-18T01:08:10.553Z,-0.60
2018-03-18T01:08:42.197Z,-0.50
2018-03-18T01:09:13.825Z,-0.50
2018-03-18T01:09:45.481Z,-0.50
2018-03-18T01:10:17.117Z,-0.50
2018-03-18T01:10:48.745Z,-0.50
2018-03-18T01:11:20.387Z,-0.50
2018-03-18T01:11:52.033Z,-0.60
2018-03-18T01:12:23.675Z,-0.60
2018-03-18T01:12:55.349Z,-0.50
2018-03-18T01:13:26.977Z,-0.60
2018-03-18T01:13:58.639Z,-0.60
2018-03-18T01:14:30.247Z,-0.70
2018-03-18T01:15:01.879Z,-0.50
2018-03-18T01:15:33.541Z,-0.60
2018-03-18T01:16:05.191Z,-0.60
2018-03-18T01:16:36.851Z,-0.60
2018-03-18T01:17:08.476Z,-0.60
2018-03-18T01:17:40.107Z,-0.60
2018-03-18T01:18:11.731Z,-0.60
2018-03-18T01:18:43.365Z,-0.60
2018-03-18T01:19:14.977Z,-0.60
2018-03-18T01:19:46.606Z,-0.60
2018-03-18T01:20:18.231Z,-0.60
2018-03-18T01:20:49.853Z,-0.60
2018-03-18T01:21:21.499Z,-0.60
2018-03-18T01:21:53.116Z,-0.50
2018-03-18T01:22:24.763Z,-0.60
2018-03-18T01:22:56.389Z,-0.60
2018-03-18T01:23:28.014Z,-0.70
2018-03-18T01:23:59.637Z,-0.70
2018-03-18T01:24:31.273Z,-0.70
2018-03-18T01:25:02.957Z,-0.60
2018-03-18T01:25:34.607Z,-0.60
2018-03-18T01:26:06.237Z,-0.70
2018-03-18T01:26:37.897Z,-0.70
2018-03-18T01:27:09.501Z,-0.60
2018-03-18T01:27:41.147Z,-0.70
2018-03-18T01:28:12.770Z,-0.60
2018-03-18T01:28:44.416Z,-0.60
2018-03-18T01:29:16.041Z,-0.70
2018-03-18T01:29:47.655Z,-0.70
2018-03-18T01:30:19.285Z,-0.70
2018-03-18T01:30:50.939Z,-0.60
2018-03-18T01:31:22.577Z,-0.70
2018-03-18T01:31:54.230Z,-0.70
2018-03-18T01:32:25.867Z,-0.70
2018-03-18T01:32:57.493Z,-0.60
2018-03-18T01:33:29.119Z,-0.60
2018-03-18T01:34:00.750Z,-0.70
2018-03-18T01:34:32.369Z,-0.70
2018-03-18T01:35:04.035Z,-0.70
2018-03-18T01:35:35.651Z,-0.70
2018-03-18T01:36:07.317Z,-0.70
2018-03-18T01:36:38.958Z,-0.60
2018-03-18T01:37:10.588Z,-0.70
2018-03-18T01:37:42.231Z,-0.70
2018-03-18T01:38:13.879Z,-0.70
2018-03-18T01:38:45.502Z,-0.70
2018-03-18T01:39:17.121Z,-0.70
2018-03-18T01:39:48.793Z,-0.80
2018-03-18T01:40:20.417Z,-0.70
2018-03-18T01:40:52.047Z,-0.70
2018-03-18T01:41:23.695Z,-0.70
2018-03-18T01:41:55.329Z,-0.70
2018-03-18T01:42:26.969Z,-0.70
2018-03-18T01:42:58.593Z,-0.70
2018-03-18T01:43:30.221Z,-0.70
2018-03-18T01:44:01.837Z,-0.70
2018-03-18T01:44:33.479Z,-0.70
2018-03-18T01:45:05.113Z,-0.70
2018-03-18T01:45:36.725Z,-0.70
2018-03-18T01:46:08.367Z,-0.70
2018-03-18T01:46:40.005Z,-0.70
2018-03-18T01:47:11.627Z,-0.70
2018-03-18T01:47:43.265Z,-0.70
2018-03-18T01:48:14.877Z,-0.80
2018-03-18T01:48:46.497Z,-0.70
2018-03-18T01:49:18.129Z,-0.80
2018-03-18T01:49:49.776Z,-0.70
2018-03-18T01:50:21.431Z,-0.80
2018-03-18T01:50:53.051Z,-0.80
2018-03-18T01:51:24.681Z,-0.70
2018-03-18T01:51:56.318Z,-0.70
2018-03-18T01:52:27.935Z,-0.80
2018-03-18T01:53:18.179Z,-0.80
2018-03-18T01:53:49.801Z,-0.70
2018-03-18T01:54:21.431Z,-0.70
2018-03-18T01:54:53.051Z,-0.80
2018-03-18T01:55:24.687Z,-0.80
2018-03-18T01:55:56.307Z,-0.70
2018-03-18T01:56:27.920Z,-0.70
2018-03-18T01:56:59.551Z,-0.80
2018-03-18T01:57:31.177Z,-0.80
2018-03-18T01:58:02.793Z,-0.70
2018-03-18T01:58:34.421Z,-0.80
2018-03-18T01:59:06.031Z,-0.70
2018-03-18T01:59:37.651Z,-0.80
2018-03-18T02:00:09.277Z,-0.80
2018-03-18T02:00:40.949Z,-0.80
2018-03-18T02:01:12.595Z,-0.80
2018-03-18T02:01:44.217Z,-0.80
2018-03-18T02:02:15.833Z,-0.80
2018-03-18T02:02:47.473Z,-0.80
2018-03-18T02:03:19.170Z,-0.80
2018-03-18T02:03:50.749Z,-0.80
2018-03-18T02:04:22.393Z,-0.80
2018-03-18T02:04:54.021Z,-0.80
2018-03-18T02:05:25.672Z,-0.70
2018-03-18T02:05:57.310Z,-0.80
2018-03-18T02:06:28.936Z,-0.80
2018-03-18T02:07:00.539Z,-0.80
2018-03-18T02:07:32.159Z,-0.70
2018-03-18T02:08:03.804Z,-0.80
2018-03-18T02:08:35.426Z,-0.80
2018-03-18T02:09:07.060Z,-0.80
2018-03-18T02:09:38.695Z,-0.80
2018-03-18T02:10:10.341Z,-0.80
2018-03-18T02:10:41.977Z,-0.80
2018-03-18T02:11:13.613Z,-0.80
2018-03-18T02:11:45.226Z,-0.90
2018-03-18T02:12:16.897Z,-0.80
2018-03-18T02:12:48.533Z,-0.90
2018-03-18T02:13:20.163Z,-0.90
2018-03-18T02:13:51.821Z,-0.80
2018-03-18T02:14:23.445Z,-0.80
2018-03-18T02:14:55.096Z,-0.80
2018-03-18T02:15:26.749Z,-0.80
2018-03-18T02:15:58.397Z,-0.80
2018-03-18T02:16:30.040Z,-0.90
2018-03-18T02:17:01.652Z,-0.80
2018-03-18T02:17:33.275Z,-0.80
2018-03-18T02:18:04.926Z,-0.80
2018-03-18T02:18:36.557Z,-0.80
2018-03-18T02:19:08.182Z,-0.80
2018-03-18T02:19:39.833Z,-0.80
2018-03-18T02:20:11.475Z,-0.80
2018-03-18T02:20:43.095Z,-0.80
2018-03-18T02:21:14.738Z,-0.80
2018-03-18T02:21:46.426Z,-0.80
2018-03-18T02:22:18.059Z,-0.80
2018-03-18T02:22:49.735Z,-0.80
2018-03-18T02:23:21.353Z,-0.80
2018-03-18T02:23:52.977Z,-0.90
2018-03-18T02:24:24.605Z,-0.90
2018-03-18T02:24:56.233Z,-0.90
2018-03-18T02:25:27.887Z,-0.80
2018-03-18T02:25:59.505Z,-0.90
2018-03-18T02:26:31.139Z,-0.80
2018-03-18T02:27:02.811Z,-0.80
2018-03-18T02:27:34.437Z,-0.90
2018-03-18T02:28:06.067Z,-0.90
2018-03-18T02:28:37.719Z,-0.90
2018-03-18T02:29:09.357Z,-0.90
2018-03-18T02:29:40.995Z,-0.90
2018-03-18T02:30:12.598Z,-0.90
2018-03-18T02:30:44.233Z,-0.90
2018-03-18T02:31:15.859Z,-0.90
2018-03-18T02:31:47.507Z,-0.90
2018-03-18T02:32:19.145Z,-0.90
2018-03-18T02:32:50.764Z,-0.90
2018-03-18T02:33:22.391Z,-0.90
2018-03-18T02:33:54.021Z,-0.80
2018-03-18T02:34:25.643Z,-0.90
2018-03-18T02:34:57.286Z,-0.90
2018-03-18T02:35:28.921Z,-0.90
2018-03-18T02:36:00.548Z,-0.90
2018-03-18T02:36:32.169Z,-0.90
2018-03-18T02:37:03.820Z,-0.90
2018-03-18T02:37:35.489Z,-0.90
2018-03-18T02:38:07.117Z,-1.00
2018-03-18T02:38:38.771Z,-0.90
2018-03-18T02:39:10.413Z,-0.90
2018-03-18T02:39:42.058Z,-0.80
2018-03-18T02:40:13.695Z,-0.90
2018-03-18T02:40:45.376Z,-1.00
2018-03-18T02:41:16.971Z,-1.00
2018-03-18T02:41:48.587Z,-1.00
2018-03-18T02:42:20.233Z,-1.00
2018-03-18T02:42:51.862Z,-1.00
2018-03-18T02:43:23.482Z,-1.00
2018-03-18T02:43:55.113Z,-0.90
2018-03-18T02:44:26.738Z,-1.00
2018-03-18T02:44:58.404Z,-0.90
2018-03-18T02:45:30.039Z,-0.90
2018-03-18T02:46:01.663Z,-0.90
2018-03-18T02:46:33.285Z,-1.00
2018-03-18T02:47:04.926Z,-1.00
2018-03-18T02:47:36.532Z,-0.90
2018-03-18T02:48:08.147Z,-0.90
2018-03-18T02:48:39.793Z,-1.00
2018-03-18T02:49:11.443Z,-0.90
2018-03-18T02:49:43.074Z,-1.00
2018-03-18T02:50:14.699Z,-0.90
2018-03-18T02:50:46.339Z,-0.90
2018-03-18T02:51:17.985Z,-1.00
2018-03-18T02:51:49.591Z,-0.90
2018-03-18T02:52:21.243Z,-1.00
2018-03-18T02:52:52.874Z,-1.00
2018-03-18T02:53:24.503Z,-1.00
2018-03-18T02:53:56.121Z,-1.00
2018-03-18T02:54:27.753Z,-1.00
2018-03-18T02:54:59.382Z,-1.00
2018-03-18T02:55:30.994Z,-1.00
2018-03-18T02:56:02.658Z,-1.00
2018-03-18T02:56:34.307Z,-1.00
2018-03-18T02:57:05.936Z,-1.00
2018-03-18T02:57:37.560Z,-1.00
2018-03-18T02:58:09.187Z,-1.00
2018-03-18T02:58:40.823Z,-1.00
2018-03-18T02:59:12.439Z,-1.00
2018-03-18T02:59:44.062Z,-1.00
2018-03-18T03:00:15.689Z,-1.00
2018-03-18T03:00:47.330Z,-1.10
2018-03-18T03:01:18.973Z,-1.00
2018-03-18T03:01:50.613Z,-1.10
2018-03-18T03:02:22.270Z,-1.10
2018-03-18T03:02:53.886Z,-1.00
2018-03-18T03:03:25.519Z,-1.10
2018-03-18T03:03:57.131Z,-1.10
2018-03-18T03:04:28.747Z,-1.10
2018-03-18T03:05:00.397Z,-1.10
2018-03-18T03:05:32.188Z,-1.00
2018-03-18T03:06:03.825Z,-1.00
2018-03-18T03:06:35.468Z,-1.00
2018-03-18T03:07:07.118Z,-1.00
2018-03-18T03:07:38.760Z,-1.00
2018-03-18T03:08:10.401Z,-1.10
2018-03-18T03:08:42.020Z,-1.10
2018-03-18T03:09:13.649Z,-1.00
2018-03-18T03:09:45.263Z,-1.10
2018-03-18T03:10:16.898Z,-1.10
2018-03-18T03:10:48.526Z,-1.10
2018-03-18T03:11:20.163Z,-1.10
2018-03-18T03:11:51.767Z,-1.00
2018-03-18T03:12:23.403Z,-1.10
2018-03-18T03:12:55.011Z,-1.10
2018-03-18T03:13:26.650Z,-1.10
2018-03-18T03:13:58.287Z,-1.10
2018-03-18T03:14:29.933Z,-1.10
2018-03-18T03:15:01.604Z,-1.10
2018-03-18T03:15:33.218Z,-1.10
2018-03-18T03:16:04.862Z,-1.10
2018-03-18T03:16:36.480Z,-1.10
2018-03-18T03:17:08.114Z,-1.10
2018-03-18T03:17:39.749Z,-1.10
2018-03-18T03:18:11.381Z,-1.10
2018-03-18T03:18:43.007Z,-1.10
2018-03-18T03:19:14.638Z,-1.10
2018-03-18T03:19:46.291Z,-1.10
2018-03-18T03:20:17.915Z,-1.10
2018-03-18T03:20:49.541Z,-1.10
2018-03-18T03:21:21.169Z,-1.10
2018-03-18T03:21:52.788Z,-1.10
2018-03-18T03:22:24.450Z,-1.10
2018-03-18T03:22:56.134Z,-1.10
2018-03-18T03:23:27.759Z,-1.10
2018-03-18T03:23:59.403Z,-1.10
2018-03-18T03:24:31.034Z,-1.10
2018-03-18T03:25:02.748Z,-1.10
2018-03-18T03:25:34.705Z,-1.20
2018-03-18T03:26:06.353Z,-1.10
2018-03-18T03:26:37.982Z,-1.10
2018-03-18T03:27:09.645Z,-1.10
2018-03-18T03:27:41.275Z,-1.10
2018-03-18T03:28:12.935Z,-1.10
2018-03-18T03:28:44.544Z,-1.10
2018-03-18T03:29:16.158Z,-1.20
2018-03-18T03:29:47.789Z,-1.10
2018-03-18T03:30:19.425Z,-1.10
2018-03-18T03:30:51.049Z,-1.20
2018-03-18T03:31:22.664Z,-1.10
2018-03-18T03:31:54.319Z,-1.10
2018-03-18T03:32:25.929Z,-1.10
2018-03-18T03:32:57.560Z,-1.10
2018-03-18T03:33:29.187Z,-1.10
2018-03-18T03:34:00.800Z,-1.10
2018-03-18T03:34:32.433Z,-1.10
2018-03-18T03:35:04.077Z,-1.20
2018-03-18T03:35:35.725Z,-1.10
2018-03-18T03:36:07.396Z,-1.10
2018-03-18T03:36:39.011Z,-1.10
2018-03-18T03:37:10.663Z,-1.10
2018-03-18T03:37:42.267Z,-1.20
2018-03-18T03:38:13.886Z,-1.20
2018-03-18T03:38:45.521Z,-1.10
2018-03-18T03:39:17.147Z,-1.20
2018-03-18T03:39:48.767Z,-1.10
2018-03-18T03:40:20.393Z,-1.10
2018-03-18T03:40:52.041Z,-1.20
2018-03-18T03:41:23.680Z,-1.20
2018-03-18T03:41:55.328Z,-1.20
2018-03-18T03:42:26.943Z,-1.20
2018-03-18T03:42:58.586Z,-1.10
2018-03-18T03:43:30.226Z,-1.20
2018-03-18T03:44:01.868Z,-1.20
2018-03-18T03:44:33.511Z,-1.20
2018-03-18T03:45:05.122Z,-1.20
2018-03-18T03:45:36.746Z,-1.20
2018-03-18T03:46:08.389Z,-1.20
2018-03-18T03:46:40.016Z,-1.20
2018-03-18T03:47:11.650Z,-1.20
2018-03-18T03:47:43.275Z,-1.10
2018-03-18T03:48:14.885Z,-1.20
2018-03-18T03:48:46.510Z,-1.20
2018-03-18T03:49:18.131Z,-1.20
2018-03-18T03:49:49.761Z,-1.20
2018-03-18T03:50:21.381Z,-1.20
2018-03-18T03:50:53.026Z,-1.20
2018-03-18T03:51:24.652Z,-1.20
2018-03-18T03:51:56.283Z,-1.20
2018-03-18T03:52:27.936Z,-1.20
2018-03-18T03:52:59.553Z,-1.20
2018-03-18T03:53:31.180Z,-1.20
2018-03-18T03:54:02.811Z,-1.20
2018-03-18T03:54:34.437Z,-1.30
2018-03-18T03:55:06.067Z,-1.30
2018-03-18T03:55:37.693Z,-1.20
2018-03-18T03:56:09.315Z,-1.20
2018-03-18T03:56:40.974Z,-1.20
2018-03-18T03:57:12.593Z,-1.30
2018-03-18T03:57:44.211Z,-1.30
2018-03-18T03:58:15.826Z,-1.30
2018-03-18T03:58:47.443Z,-1.20
2018-03-18T03:59:19.053Z,-1.20
2018-03-18T03:59:50.655Z,-1.30
2018-03-18T04:00:22.288Z,-1.30
2018-03-18T04:00:53.915Z,-1.20
2018-03-18T04:01:25.554Z,-1.30
2018-03-18T04:01:57.189Z,-1.30
2018-03-18T04:02:28.813Z,-1.30
2018-03-18T04:03:00.488Z,-1.20
2018-03-18T04:03:32.094Z,-1.30
2018-03-18T04:04:03.726Z,-1.30
2018-03-18T04:04:35.394Z,-1.30
2018-03-18T04:05:06.994Z,-1.30
2018-03-18T04:05:38.605Z,-1.30
2018-03-18T04:06:10.238Z,-1.30
2018-03-18T04:06:41.858Z,-1.30
2018-03-18T04:07:13.509Z,-1.20
2018-03-18T04:07:45.117Z,-1.30
2018-03-18T04:08:16.801Z,-1.30
2018-03-18T04:08:48.419Z,-1.30
2018-03-18T04:09:20.054Z,-1.30
2018-03-18T04:09:51.699Z,-1.30
2018-03-18T04:10:23.350Z,-1.30
2018-03-18T04:10:54.977Z,-1.30
2018-03-18T04:11:26.626Z,-1.30
2018-03-18T04:11:58.245Z,-1.30
2018-03-18T04:12:29.875Z,-1.40
2018-03-18T04:13:01.543Z,-1.30
2018-03-18T04:13:33.144Z,-1.40
2018-03-18T04:14:04.796Z,-1.30
2018-03-18T04:14:36.468Z,-1.30
2018-03-18T04:15:08.082Z,-1.30
2018-03-18T04:15:39.748Z,-1.30
2018-03-18T04:16:11.363Z,-1.40
2018-03-18T04:16:42.988Z,-1.30
2018-03-18T04:17:14.601Z,-1.30
2018-03-18T04:17:46.248Z,-1.30
2018-03-18T04:18:17.849Z,-1.40
2018-03-18T04:18:49.479Z,-1.40
2018-03-18T04:19:21.105Z,-1.30
2018-03-18T04:19:52.740Z,-1.30
2018-03-18T04:20:24.370Z,-1.30
2018-03-18T04:20:56.011Z,-1.30
2018-03-18T04:21:27.641Z,-1.30
2018-03-18T04:21:59.289Z,-1.40
2018-03-18T04:22:30.927Z,-1.30
2018-03-18T04:23:02.575Z,-1.40
2018-03-18T04:23:34.234Z,-1.40
2018-03-18T04:24:05.875Z,-1.30
2018-03-18T04:24:37.505Z,-1.30
2018-03-18T04:25:09.132Z,-1.30
2018-03-18T04:25:40.753Z,-1.40
2018-03-18T04:26:12.431Z,-1.40
2018-03-18T04:26:44.051Z,-1.30
2018-03-18T04:27:15.672Z,-1.30
2018-03-18T04:27:47.289Z,-1.40
2018-03-18T04:28:18.929Z,-1.40
2018-03-18T04:28:50.573Z,-1.40
2018-03-18T04:29:22.211Z,-1.40
2018-03-18T04:29:53.861Z,-1.30
2018-03-18T04:30:25.531Z,-1.40
2018-03-18T04:30:57.164Z,-1.30
2018-03-18T04:31:28.818Z,-1.30
2018-03-18T04:32:00.439Z,-1.30
2018-03-18T04:32:32.107Z,-1.40
2018-03-18T04:33:03.719Z,-1.40
2018-03-18T04:33:35.349Z,-1.30
2018-03-18T04:34:06.953Z,-1.40
2018-03-18T04:34:38.579Z,-1.40
2018-03-18T04:35:10.217Z,-1.40
2018-03-18T04:35:41.849Z,-1.40
2018-03-18T04:36:13.459Z,-1.40
2018-03-18T04:36:45.071Z,-1.40
2018-03-18T04:37:16.686Z,-1.40
2018-03-18T04:37:48.305Z,-1.40
2018-03-18T04:38:19.919Z,-1.50
2018-03-18T04:38:51.546Z,-1.40
2018-03-18T04:39:23.151Z,-1.40
2018-03-18T04:39:54.791Z,-1.40
2018-03-18T04:40:26.401Z,-1.40
2018-03-18T04:40:58.039Z,-1.50
2018-03-18T04:41:29.689Z,-1.50
2018-03-18T04:42:01.305Z,-1.40
2018-03-18T04:42:32.929Z,-1.40
2018-03-18T04:43:04.534Z,-1.50
2018-03-18T04:43:36.167Z,-1.50
2018-03-18T04:44:07.808Z,-1.40
2018-03-18T04:44:39.437Z,-1.40
2018-03-18T04:45:11.079Z,-1.40
2018-03-18T04:45:42.697Z,-1.40
2018-03-18T04:46:14.341Z,-1.40
2018-03-18T04:46:45.959Z,-1.40
2018-03-18T04:47:17.651Z,-1.40
2018-03-18T04:47:49.259Z,-1.40
2018-03-18T04:48:20.909Z,-1.40
2018-03-18T04:48:52.569Z,-1.40
2018-03-18T04:49:24.198Z,-1.50
2018-03-18T04:49:55.833Z,-1.40
2018-03-18T04:50:27.467Z,-1.40
2018-03-18T04:50:59.096Z,-1.40
2018-03-18T04:51:30.715Z,-1.50
2018-03-18T04:52:02.431Z,-1.40
2018-03-18T04:52:34.006Z,-1.50
2018-03-18T04:53:05.632Z,-1.50
2018-03-18T04:53:37.300Z,-1.40
2018-03-18T04:54:08.980Z,-1.50
2018-03-18T04:54:40.594Z,-1.50
2018-03-18T04:55:12.462Z,-1.40
2018-03-18T04:55:44.085Z,-1.40
2018-03-18T04:56:16.636Z,-1.40
2018-03-18T04:56:48.329Z,-1.50
2018-03-18T04:57:19.978Z,-1.50
2018-03-18T04:57:51.609Z,-1.50
2018-03-18T04:58:23.233Z,-1.50
2018-03-18T04:58:54.833Z,-1.40
2018-03-18T04:59:26.473Z,-1.50
2018-03-18T04:59:58.117Z,-1.40
2018-03-18T05:00:29.726Z,-1.50
2018-03-18T05:01:01.355Z,-1.50
2018-03-18T05:02:21.653Z,-1.50
2018-03-18T05:02:53.333Z,-1.50
2018-03-18T05:03:24.956Z,-1.50
2018-03-18T05:03:56.585Z,-1.50
2018-03-18T05:04:28.212Z,-1.50
2018-03-18T05:04:59.883Z,-1.50
2018-03-18T05:05:31.521Z,-1.50
2018-03-18T05:06:03.162Z,-1.50
2018-03-18T05:06:34.788Z,-1.50
2018-03-18T05:07:06.419Z,-1.50
2018-03-18T05:07:38.035Z,-1.50
2018-03-18T05:08:09.665Z,-1.50
2018-03-18T05:08:41.297Z,-1.60
2018-03-18T05:09:12.944Z,-1.40
2018-03-18T05:09:44.570Z,-1.50
2018-03-18T05:10:16.197Z,-1.50
2018-03-18T05:10:47.833Z,-1.50
2018-03-18T05:11:19.471Z,-1.50
2018-03-18T05:11:51.085Z,-1.50
2018-03-18T05:12:22.714Z,-1.50
2018-03-18T05:12:54.350Z,-1.50
2018-03-18T05:13:25.949Z,-1.50
2018-03-18T05:13:57.596Z,-1.60
2018-03-18T05:14:29.204Z,-1.50
2018-03-18T05:15:00.816Z,-1.50
2018-03-18T05:15:32.456Z,-1.50
2018-03-18T05:16:04.091Z,-1.50
2018-03-18T05:16:35.700Z,-1.40
2018-03-18T05:17:07.329Z,-1.50
2018-03-18T05:17:38.965Z,-1.50
2018-03-18T05:18:10.593Z,-1.50
2018-03-18T05:18:42.227Z,-1.50
2018-03-18T05:19:13.861Z,-1.50
2018-03-18T05:19:45.483Z,-1.50
2018-03-18T05:20:17.111Z,-1.50
2018-03-18T05:20:48.740Z,-1.60
2018-03-18T05:21:20.375Z,-1.50
2018-03-18T05:21:52.010Z,-1.60
2018-03-18T05:22:23.623Z,-1.50
2018-03-18T05:22:55.286Z,-1.60
2018-03-18T05:23:26.877Z,-1.50
2018-03-18T05:23:58.523Z,-1.50
2018-03-18T05:24:30.149Z,-1.60
2018-03-18T05:25:01.759Z,-1.60
2018-03-18T05:25:33.401Z,-1.50
2018-03-18T05:26:05.038Z,-1.60
2018-03-18T05:26:36.665Z,-1.60
2018-03-18T05:27:08.310Z,-1.60
2018-03-18T05:27:39.913Z,-1.60
2018-03-18T05:28:11.548Z,-1.50
2018-03-18T05:28:43.171Z,-1.60
2018-03-18T05:29:14.800Z,-1.50
2018-03-18T05:29:46.415Z,-1.50
2018-03-18T05:30:18.027Z,-1.60
2018-03-18T05:30:49.672Z,-1.60
2018-03-18T05:31:21.363Z,-1.60
2018-03-18T05:31:53.009Z,-1.60
2018-03-18T05:32:24.663Z,-1.50
2018-03-18T05:32:56.301Z,-1.60
2018-03-18T05:33:27.929Z,-1.60
2018-03-18T05:33:59.560Z,-1.60
2018-03-18T05:34:31.199Z,-1.50
2018-03-18T05:35:02.855Z,-1.60
2018-03-18T05:35:34.471Z,-1.60
2018-03-18T05:36:06.094Z,-1.60
2018-03-18T05:36:37.756Z,-1.60
2018-03-18T05:37:09.375Z,-1.50
2018-03-18T05:37:41.026Z,-1.60
2018-03-18T05:38:12.673Z,-1.60
2018-03-18T05:38:44.328Z,-1.50
2018-03-18T05:39:15.977Z,-1.60
2018-03-18T05:39:47.639Z,-1.60
2018-03-18T05:40:19.259Z,-1.60
2018-03-18T05:40:50.921Z,-1.50
2018-03-18T05:41:22.591Z,-1.60
2018-03-18T05:41:54.212Z,-1.60
2018-03-18T05:42:25.839Z,-1.50
2018-03-18T05:42:57.464Z,-1.50
2018-03-18T05:43:29.099Z,-1.60
2018-03-18T05:44:00.731Z,-1.60
2018-03-18T05:44:32.351Z,-1.60
2018-03-18T05:45:03.977Z,-1.60
2018-03-18T05:45:35.611Z,-1.50
2018-03-18T05:46:07.245Z,-1.60
2018-03-18T05:46:38.886Z,-1.60
2018-03-18T05:47:10.509Z,-1.60
2018-03-18T05:47:42.149Z,-1.60
2018-03-18T05:48:13.768Z,-1.60
2018-03-18T05:48:45.383Z,-1.60
2018-03-18T05:49:17.012Z,-1.60
2018-03-18T05:49:48.635Z,-1.60
2018-03-18T05:50:20.258Z,-1.60
2018-03-18T05:50:51.920Z,-1.60
2018-03-18T05:51:23.553Z,-1.60
2018-03-18T05:51:55.167Z,-1.60
2018-03-18T05:52:26.831Z,-1.60
2018-03-18T05:52:58.478Z,-1.60
2018-03-18T05:53:30.110Z,-1.60
2018-03-18T05:54:01.760Z,-1.60
2018-03-18T05:54:33.413Z,-1.60
2018-03-18T05:55:05.103Z,-1.60
2018-03-18T05:55:36.717Z,-1.60
2018-03-18T05:56:08.342Z,-1.60
2018-03-18T05:56:40.000Z,-1.60
2018-03-18T05:57:11.617Z,-1.60
2018-03-18T05:57:43.250Z,-1.60
2018-03-18T05:58:14.850Z,-1.60
2018-03-18T05:58:46.517Z,-1.60
2018-03-18T05:59:18.143Z,-1.60
2018-03-18T05:59:49.765Z,-1.50
2018-03-18T06:00:21.399Z,-1.60
2018-03-18T06:00:53.013Z,-1.60
2018-03-18T06:01:24.653Z,-1.60
2018-03-18T06:01:56.271Z,-1.60
2018-03-18T06:02:27.898Z,-1.60
2018-03-18T06:02:59.522Z,-1.50
2018-03-18T06:03:31.128Z,-1.60
2018-03-18T06:04:02.779Z,-1.50
2018-03-18T06:04:34.388Z,-1.50
2018-03-18T06:05:06.020Z,-1.50
2018-03-18T06:05:37.663Z,-1.40
2018-03-18T06:06:09.289Z,-1.50
2018-03-18T06:06:40.913Z,-1.50
2018-03-18T06:07:12.534Z,-1.60
2018-03-18T06:07:44.145Z,-1.50
2018-03-18T06:08:15.793Z,-1.50
2018-03-18T06:08:47.424Z,-1.50
2018-03-18T06:09:19.040Z,-1.60
2018-03-18T06:09:50.657Z,-1.50
2018-03-18T06:10:22.281Z,-1.50
2018-03-18T06:10:53.919Z,-1.50
2018-03-18T06:11:25.534Z,-1.60
2018-03-18T06:11:57.185Z,-1.50
2018-03-18T06:12:28.820Z,-1.50
2018-03-18T06:13:00.466Z,-1.50
2018-03-18T06:13:32.103Z,-1.50
2018-03-18T06:14:03.715Z,-1.50
2018-03-18T06:14:35.338Z,-1.50
2018-03-18T06:15:06.949Z,-1.50
2018-03-18T06:15:38.557Z,-1.50
2018-03-18T06:16:10.187Z,-1.40
2018-03-18T06:16:41.802Z,-1.50
2018-03-18T06:17:13.433Z,-1.40
2018-03-18T06:17:45.043Z,-1.40
2018-03-18T06:18:16.662Z,-1.40
2018-03-18T06:18:48.319Z,-1.40
2018-03-18T06:19:19.988Z,-1.40
2018-03-18T06:19:51.615Z,-1.40
2018-03-18T06:20:23.221Z,-1.40
2018-03-18T06:20:54.873Z,-1.40
2018-03-18T06:21:26.473Z,-1.40
2018-03-18T06:21:58.075Z,-1.40
2018-03-18T06:22:29.720Z,-1.30
2018-03-18T06:23:01.365Z,-1.30
2018-03-18T06:23:32.993Z,-1.40
2018-03-18T06:24:04.616Z,-1.40
2018-03-18T06:24:36.227Z,-1.40
2018-03-18T06:25:07.852Z,-1.30
2018-03-18T06:25:39.490Z,-1.30
2018-03-18T06:26:11.129Z,-1.30
2018-03-18T06:26:42.753Z,-1.30
2018-03-18T06:27:14.368Z,-1.20
2018-03-18T06:27:49.571Z,-1.30
2018-03-18T06:28:21.216Z,-1.30
2018-03-18T06:28:52.838Z,-1.20
2018-03-18T06:29:24.481Z,-1.30
2018-03-18T06:29:56.091Z,-1.20
2018-03-18T06:30:27.721Z,-1.20
2018-03-18T06:30:59.349Z,-1.20
2018-03-18T06:31:31.006Z,-1.30
2018-03-18T06:32:02.627Z,-1.20
2018-03-18T06:32:34.237Z,-1.20
2018-03-18T06:33:05.836Z,-1.30
2018-03-18T06:33:37.456Z,-1.20
2018-03-18T06:34:09.081Z,-1.20
2018-03-18T06:34:40.729Z,-1.20
2018-03-18T06:35:12.351Z,-1.20
2018-03-18T06:35:43.967Z,-1.20
2018-03-18T06:36:15.572Z,-1.30
2018-03-18T06:36:47.185Z,-1.20
2018-03-18T06:37:18.822Z,-1.20
2018-03-18T06:37:50.447Z,-1.20
2018-03-18T06:38:22.049Z,-1.20
2018-03-18T06:38:53.677Z,-1.20
2018-03-18T06:39:25.323Z,-1.20
2018-03-18T06:39:56.938Z,-1.20
2018-03-18T06:40:28.589Z,-1.20
2018-03-18T06:41:00.220Z,-1.10
2018-03-18T06:41:31.864Z,-1.20
2018-03-18T06:42:03.521Z,-1.10
2018-03-18T06:42:35.142Z,-1.10
2018-03-18T06:43:06.864Z,-1.10
2018-03-18T06:43:38.467Z,-1.20
2018-03-18T06:44:10.085Z,-1.10
2018-03-18T06:44:41.709Z,-1.10
2018-03-18T06:45:13.340Z,-1.10
2018-03-18T06:45:44.959Z,-1.10
2018-03-18T06:46:16.613Z,-1.20
2018-03-18T06:46:48.250Z,-1.20
2018-03-18T06:47:19.871Z,-1.20
2018-03-18T06:47:51.527Z,-1.10
2018-03-18T06:48:23.157Z,-1.20
2018-03-18T06:48:54.814Z,-1.10
2018-03-18T06:49:26.422Z,-1.10
2018-03-18T06:49:58.040Z,-1.00